createdAt,value
2018-03-27T00:00:33.521Z,8.85
2018-03-27T00:03:02.594Z,8.20
2018-03-27T00:05:31.662Z,8.40
2018-03-27T00:08:01.623Z,8.75
2018-03-27T00:10:30.763Z,7.95
2018-03-27T00:12:59.881Z,8.63
2018-03-27T00:15:29.154Z,8.10
2018-03-27T00:17:58.243Z,8.48
2018-03-27T00:20:28.079Z,9.05
2018-03-27T00:22:57.178Z,8.73
2018-03-27T00:25:27.082Z,8.80
2018-03-27T00:28:14.160Z,9.00
2018-03-27T00:31:01.076Z,9.40
2018-03-27T00:33:48.098Z,7.90
2018-03-27T00:36:35.951Z,8.77
2018-03-27T00:39:24.163Z,9.40
2018-03-27T00:45:14.078Z,7.40
2018-03-27T00:47:43.158Z,8.50
2018-03-27T00:50:13.221Z,8.95
2018-03-27T00:52:42.284Z,8.20
2018-03-27T00:55:11.386Z,9.27
2018-03-27T00:57:40.453Z,8.57
2018-03-27T01:00:09.518Z,8.30
2018-03-27T01:02:38.589Z,7.80
2018-03-27T01:05:10.601Z,8.70
2018-03-27T01:07:39.701Z,8.13
2018-03-27T01:10:08.765Z,9.63
2018-03-27T01:12:37.881Z,7.75
2018-03-27T01:15:06.955Z,8.90
2018-03-27T01:17:36.785Z,8.25
2018-03-27T01:20:06.630Z,7.75
2018-03-27T01:22:35.715Z,9.13
2018-03-27T01:25:05.582Z,8.95
2018-03-27T01:27:34.646Z,9.05
2018-03-27T01:30:03.779Z,8.68
2018-03-27T01:32:33.618Z,8.63
2018-03-27T01:35:02.685Z,9.23
2018-03-27T01:37:31.782Z,7.50
2018-03-27T01:40:00.914Z,7.45
2018-03-27T01:42:29.982Z,8.02
2018-03-27T01:44:59.048Z,7.85
2018-03-27T01:47:28.883Z,8.73
2018-03-27T01:49:58.709Z,7.75
2018-03-27T01:52:28.547Z,7.90
2018-03-27T01:54:57.613Z,7.47
2018-03-27T01:57:26.686Z,8.30
2018-03-27T01:59:55.990Z,8.07
2018-03-27T02:02:25.054Z,8.55
2018-03-27T02:04:54.229Z,8.05
2018-03-27T02:07:23.294Z,8.00
2018-03-27T02:09:53.121Z,9.45
2018-03-27T02:12:28.446Z,8.65
2018-03-27T02:15:03.358Z,7.65
2018-03-27T02:17:38.021Z,7.87
2018-03-27T02:20:12.775Z,7.68
2018-03-27T02:22:51.812Z,8.82
2018-03-27T02:25:20.917Z,8.00
2018-03-27T02:27:49.982Z,8.15
2018-03-27T02:30:19.814Z,7.05
2018-03-27T02:32:49.677Z,7.60
2018-03-27T02:35:18.799Z,7.82
2018-03-27T02:37:47.893Z,8.50
2018-03-27T02:40:17.003Z,7.35
2018-03-27T02:42:46.071Z,7.30
2018-03-27T02:45:15.206Z,7.70
2018-03-27T02:47:44.279Z,7.47
2018-03-27T02:50:13.425Z,7.30
2018-03-27T02:52:42.487Z,8.27
2018-03-27T02:55:11.582Z,7.85
2018-03-27T02:57:40.655Z,8.57
2018-03-27T03:00:09.719Z,7.10
2018-03-27T03:02:38.788Z,7.37
2018-03-27T03:05:07.851Z,8.20
2018-03-27T03:07:36.981Z,8.73
2018-03-27T03:10:06.810Z,8.63
2018-03-27T03:12:36.629Z,8.10
2018-03-27T03:15:06.514Z,8.38
2018-03-27T03:17:35.618Z,8.05
2018-03-27T03:20:04.681Z,7.97
2018-03-27T03:22:34.645Z,8.48
2018-03-27T03:25:03.718Z,8.77
2018-03-27T03:27:33.553Z,9.20
2018-03-27T03:30:03.419Z,8.43
2018-03-27T03:32:32.530Z,7.97
2018-03-27T03:35:01.600Z,8.40
2018-03-27T03:37:31.546Z,8.10
2018-03-27T03:40:00.611Z,7.43
2018-03-27T03:42:29.673Z,8.40
2018-03-27T03:44:58.899Z,8.02
2018-03-27T03:47:28.064Z,9.27
2018-03-27T03:49:57.162Z,8.05
2018-03-27T03:52:26.222Z,7.35
2018-03-27T03:54:55.313Z,8.50
2018-03-27T03:57:24.410Z,9.10
2018-03-27T03:59:54.282Z,8.50
2018-03-27T04:02:23.378Z,9.20
2018-03-27T04:04:52.445Z,8.32
2018-03-27T04:07:22.286Z,9.13
2018-03-27T04:09:52.114Z,8.10
2018-03-27T04:12:21.991Z,8.05
2018-03-27T04:14:51.054Z,8.98
2018-03-27T04:17:20.998Z,9.10
2018-03-27T04:19:50.073Z,8.18
2018-03-27T04:22:19.325Z,7.97
2018-03-27T04:24:48.413Z,7.97
2018-03-27T04:27:18.241Z,8.80
2018-03-27T04:29:48.134Z,8.50
2018-03-27T04:32:17.194Z,8.48
2018-03-27T04:34:46.294Z,8.80
2018-03-27T04:37:16.120Z,8.52
2018-03-27T04:39:45.181Z,8.50
2018-03-27T04:42:14.283Z,8.02
2018-03-27T04:44:44.134Z,8.55
2018-03-27T04:47:13.314Z,8.57
2018-03-27T04:49:43.182Z,9.52
2018-03-27T04:52:12.260Z,9.95
2018-03-27T04:54:41.330Z,8.98
2018-03-27T04:57:11.257Z,9.32
2018-03-27T04:59:40.351Z,9.80
2018-03-27T05:02:09.429Z,10.13
2018-03-27T05:04:38.541Z,9.50
2018-03-27T05:07:07.616Z,10.13
2018-03-27T05:09:36.721Z,10.45
2018-03-27T05:12:05.840Z,10.88
2018-03-27T05:14:35.658Z,10.48
2018-03-27T05:17:04.761Z,11.35
2018-03-27T05:19:33.834Z,10.15
2018-03-27T05:22:02.978Z,10.02
2018-03-27T05:24:32.056Z,10.18
2018-03-27T05:27:01.138Z,10.40
2018-03-27T05:29:30.243Z,10.43
2018-03-27T05:31:59.310Z,11.07
2018-03-27T05:34:29.147Z,11.12
2018-03-27T05:36:58.223Z,10.60
2018-03-27T05:39:27.362Z,11.10
2018-03-27T05:41:56.438Z,12.18
2018-03-27T05:44:25.605Z,11.32
2018-03-27T05:46:54.697Z,11.77
2018-03-27T05:49:24.534Z,11.93
2018-03-27T05:51:53.762Z,10.50
2018-03-27T05:54:22.830Z,12.82
2018-03-27T05:56:52.722Z,10.73
2018-03-27T05:59:21.790Z,10.52
2018-03-27T06:01:50.866Z,11.38
2018-03-27T06:04:19.974Z,12.48
2018-03-27T06:06:49.051Z,11.75
2018-03-27T06:09:18.153Z,11.65
2018-03-27T06:11:47.235Z,11.27
2018-03-27T06:14:17.077Z,11.90
2018-03-27T06:16:46.154Z,12.07
2018-03-27T06:19:15.221Z,11.75
2018-03-27T06:21:44.293Z,11.32
2018-03-27T06:24:13.402Z,12.25
2018-03-27T06:26:43.274Z,13.38
2018-03-27T06:29:12.345Z,13.05
2018-03-27T06:31:41.446Z,13.05
2018-03-27T06:34:11.348Z,13.40
2018-03-27T06:36:40.658Z,13.57
2018-03-27T06:39:09.734Z,15.80
2018-03-27T06:41:38.819Z,14.70
2018-03-27T06:44:07.937Z,14.02
2018-03-27T06:46:37.062Z,14.60
2018-03-27T06:49:06.138Z,16.73
2018-03-27T06:51:35.214Z,19.12
2018-03-27T06:54:04.392Z,17.10
2018-03-27T06:56:33.462Z,17.17
2018-03-27T06:59:03.385Z,18.50
2018-03-27T07:01:32.576Z,18.25
2018-03-27T07:04:01.717Z,21.55
2018-03-27T07:06:31.553Z,20.50
2018-03-27T07:09:01.813Z,21.40
2018-03-27T07:11:30.869Z,23.15
2018-03-27T07:14:00.776Z,20.42
2018-03-27T07:16:29.989Z,20.45
2018-03-27T07:18:59.093Z,19.42
2018-03-27T07:21:28.194Z,19.23
2018-03-27T07:23:57.262Z,19.95
2018-03-27T07:26:27.162Z,19.90
2018-03-27T07:28:56.240Z,20.48
2018-03-27T07:31:25.390Z,19.70
2018-03-27T07:33:54.462Z,19.58
2018-03-27T07:36:23.535Z,20.35
2018-03-27T07:38:53.369Z,18.70
2018-03-27T07:41:22.446Z,18.92
2018-03-27T07:43:51.576Z,18.58
2018-03-27T07:46:21.602Z,17.65
2018-03-27T07:48:50.697Z,17.42
2018-03-27T07:51:19.805Z,18.10
2018-03-27T07:53:48.878Z,17.52
2018-03-27T07:56:17.968Z,16.58
2018-03-27T07:58:47.036Z,13.32
2018-03-27T08:01:16.162Z,13.93
2018-03-27T08:03:45.254Z,13.70
2018-03-27T08:06:14.447Z,13.35
2018-03-27T08:08:43.532Z,12.57
2018-03-27T08:11:12.637Z,13.43
2018-03-27T08:13:41.716Z,12.88
2018-03-27T08:16:11.557Z,13.15
2018-03-27T08:18:41.390Z,12.52
2018-03-27T08:21:11.230Z,12.60
2018-03-27T08:23:40.342Z,12.80
2018-03-27T08:26:09.461Z,13.85
2018-03-27T08:28:39.271Z,12.52
2018-03-27T08:31:09.118Z,11.43
2018-03-27T08:33:38.195Z,12.70
2018-03-27T08:36:08.093Z,11.60
2018-03-27T08:38:37.197Z,12.32
2018-03-27T08:41:07.265Z,12.60
2018-03-27T08:43:36.450Z,13.48
2018-03-27T08:46:05.525Z,13.20
2018-03-27T08:48:34.703Z,12.77
2018-03-27T08:51:04.670Z,12.63
2018-03-27T08:53:33.742Z,12.82
2018-03-27T08:56:03.620Z,12.55
2018-03-27T08:58:32.703Z,13.25
2018-03-27T09:01:01.780Z,11.57
2018-03-27T09:03:31.631Z,12.45
2018-03-27T09:06:00.702Z,11.48
2018-03-27T09:08:29.770Z,11.77
2018-03-27T09:10:58.875Z,11.35
2018-03-27T09:13:28.852Z,11.73
2018-03-27T09:15:57.921Z,10.52
2018-03-27T09:18:26.997Z,10.82
2018-03-27T09:20:56.834Z,11.57
2018-03-27T09:23:26.793Z,12.52
2018-03-27T09:25:55.934Z,9.90
2018-03-27T09:28:25.001Z,10.73
2018-03-27T09:30:54.121Z,10.63
2018-03-27T09:33:23.210Z,12.73
2018-03-27T09:35:52.282Z,11.63
2018-03-27T09:38:21.376Z,11.12
2018-03-27T09:40:50.486Z,9.80
2018-03-27T09:43:19.562Z,10.35
2018-03-27T09:45:48.683Z,12.00
2018-03-27T09:48:17.758Z,13.02
2018-03-27T09:50:47.589Z,11.80
2018-03-27T09:53:17.421Z,13.77
2018-03-27T09:55:47.343Z,12.25
2018-03-27T09:58:17.191Z,11.30
2018-03-27T10:00:51.217Z,12.43
2018-03-27T10:03:20.334Z,11.00
2018-03-27T10:05:50.181Z,12.05
2018-03-27T10:08:19.254Z,12.43
2018-03-27T10:10:49.093Z,10.90
2018-03-27T10:13:18.167Z,11.63
2018-03-27T10:15:47.293Z,10.88
2018-03-27T10:18:17.794Z,10.75
2018-03-27T10:20:46.869Z,10.73
2018-03-27T10:23:15.965Z,11.88
2018-03-27T10:25:45.794Z,11.02
2018-03-27T10:28:14.946Z,9.90
2018-03-27T10:30:44.105Z,9.35
2018-03-27T10:33:13.947Z,10.50
2018-03-27T10:35:43.084Z,10.35
2018-03-27T10:38:12.188Z,10.73
2018-03-27T10:40:41.253Z,10.98
2018-03-27T10:43:11.098Z,10.57
2018-03-27T10:45:40.985Z,9.20
2018-03-27T10:48:10.054Z,12.90
2018-03-27T10:50:39.127Z,14.50
2018-03-27T10:53:08.202Z,11.35
2018-03-27T10:55:37.284Z,11.27
2018-03-27T10:58:06.379Z,10.10
2018-03-27T11:00:36.242Z,9.57
2018-03-27T11:03:05.338Z,9.10
2018-03-27T11:05:34.444Z,9.75
2018-03-27T11:08:03.518Z,10.15
2018-03-27T11:10:32.631Z,9.05
2018-03-27T11:13:02.466Z,9.18
2018-03-27T11:15:32.342Z,8.85
2018-03-27T11:18:01.439Z,9.60
2018-03-27T11:20:30.530Z,8.80
2018-03-27T11:22:59.658Z,8.90
2018-03-27T11:25:28.725Z,8.23
2018-03-27T11:27:57.811Z,9.88
2018-03-27T11:30:26.873Z,9.68
2018-03-27T11:32:56.005Z,8.70
2018-03-27T11:35:25.078Z,8.32
2018-03-27T11:37:54.917Z,8.70
2018-03-27T11:40:24.066Z,8.50
2018-03-27T11:42:53.134Z,8.90
2018-03-27T11:45:22.206Z,8.13
2018-03-27T11:47:51.311Z,7.55
2018-03-27T11:50:20.419Z,7.68
2018-03-27T11:52:49.494Z,7.78
2018-03-27T11:55:18.617Z,7.25
2018-03-27T11:57:47.737Z,6.82
2018-03-27T12:00:16.878Z,7.20
2018-03-27T12:02:46.758Z,7.53
2018-03-27T12:05:15.823Z,8.50
2018-03-27T12:07:45.143Z,9.82
2018-03-27T12:10:15.014Z,8.50
2018-03-27T12:12:45.212Z,7.37
2018-03-27T12:15:15.084Z,8.68
2018-03-27T12:17:44.158Z,7.05
2018-03-27T12:20:14.013Z,8.25
2018-03-27T12:22:43.114Z,6.35
2018-03-27T12:25:12.370Z,7.47
2018-03-27T12:27:42.023Z,7.65
2018-03-27T12:30:11.932Z,8.13
2018-03-27T12:32:41.010Z,8.63
2018-03-27T12:35:10.105Z,9.35
2018-03-27T12:37:40.014Z,8.80
2018-03-27T12:40:09.886Z,8.18
2018-03-27T12:42:39.972Z,9.13
2018-03-27T12:45:09.125Z,8.50
2018-03-27T12:47:38.206Z,8.60
2018-03-27T12:50:07.277Z,9.50
2018-03-27T12:52:36.359Z,7.97
2018-03-27T12:55:05.483Z,8.65
2018-03-27T12:57:34.564Z,7.57
2018-03-27T13:00:03.648Z,7.70
2018-03-27T13:02:32.736Z,8.57
2018-03-27T13:05:02.646Z,9.30
2018-03-27T13:07:31.730Z,7.45
2018-03-27T13:10:00.853Z,8.75
2018-03-27T13:12:29.917Z,8.10
2018-03-27T13:14:59.000Z,9.05
2018-03-27T13:17:28.267Z,7.57
2018-03-27T13:19:57.379Z,9.02
2018-03-27T13:22:26.459Z,8.70
2018-03-27T13:24:56.294Z,7.60
2018-03-27T13:27:25.362Z,8.25
2018-03-27T13:29:54.429Z,7.50
2018-03-27T13:32:23.554Z,7.70
2018-03-27T13:34:52.637Z,7.80
2018-03-27T13:37:21.749Z,8.48
2018-03-27T13:39:50.877Z,7.97
2018-03-27T13:42:19.986Z,8.68
2018-03-27T13:44:49.834Z,8.80
2018-03-27T13:47:18.954Z,8.18
2018-03-27T13:49:48.279Z,9.35
2018-03-27T13:52:17.370Z,8.00
2018-03-27T13:54:46.482Z,8.70
2018-03-27T13:57:15.674Z,9.43
2018-03-27T13:59:44.818Z,7.97
2018-03-27T14:02:14.674Z,8.75
2018-03-27T14:04:44.567Z,8.60
2018-03-27T14:07:13.699Z,8.05
2018-03-27T14:09:43.591Z,7.67
2018-03-27T14:12:12.685Z,7.47
2018-03-27T14:14:41.816Z,8.00
2018-03-27T14:17:10.903Z,8.27
2018-03-27T14:19:39.979Z,8.33
2018-03-27T14:22:09.833Z,10.10
2018-03-27T14:24:39.633Z,10.13
2018-03-27T14:27:09.961Z,7.53
2018-03-27T14:29:39.051Z,7.47
2018-03-27T14:32:08.126Z,7.30
2018-03-27T14:34:37.257Z,6.03
2018-03-27T14:37:06.371Z,5.87
2018-03-27T14:39:35.457Z,5.90
2018-03-27T14:42:04.585Z,5.83
2018-03-27T14:44:33.738Z,5.27
2018-03-27T14:47:02.778Z,4.90
2018-03-27T14:49:31.906Z,5.85
2018-03-27T14:52:01.008Z,5.60
2018-03-27T14:54:30.123Z,5.57
2018-03-27T14:56:59.223Z,5.55
2018-03-27T14:59:28.366Z,6.00
2018-03-27T15:01:57.445Z,5.43
2018-03-27T15:04:26.530Z,6.85
2018-03-27T15:06:56.420Z,6.67
2018-03-27T15:09:25.598Z,6.40
2018-03-27T15:11:54.678Z,5.80
2018-03-27T15:14:24.573Z,7.03
2018-03-27T15:16:55.379Z,7.05
2018-03-27T15:19:24.468Z,6.40
2018-03-27T15:21:54.356Z,6.00
2018-03-27T15:24:24.411Z,6.43
2018-03-27T15:26:54.306Z,6.22
2018-03-27T15:29:25.052Z,5.95
2018-03-27T15:31:54.160Z,6.75
2018-03-27T15:34:23.411Z,5.65
2018-03-27T15:36:52.485Z,6.40
2018-03-27T15:39:21.654Z,6.35
2018-03-27T15:41:51.510Z,7.07
2018-03-27T15:44:20.574Z,4.80
2018-03-27T15:46:49.642Z,7.18
2018-03-27T15:49:18.709Z,6.15
2018-03-27T15:51:47.779Z,6.20
2018-03-27T15:54:16.917Z,5.82
2018-03-27T15:56:45.988Z,5.18
2018-03-27T15:59:15.046Z,5.07
2018-03-27T16:01:44.119Z,6.28
2018-03-27T16:04:14.663Z,6.62
2018-03-27T16:06:43.970Z,7.05
2018-03-27T16:09:13.053Z,6.10
2018-03-27T16:11:42.187Z,5.65
2018-03-27T16:14:11.314Z,6.45
2018-03-27T16:16:40.409Z,6.00
2018-03-27T16:19:09.473Z,5.93
2018-03-27T16:21:38.539Z,5.57
2018-03-27T16:24:07.619Z,5.97
2018-03-27T16:26:36.747Z,6.72
2018-03-27T16:29:05.827Z,9.90
2018-03-27T16:31:35.658Z,7.10
2018-03-27T16:34:05.615Z,5.97
2018-03-27T16:36:34.682Z,5.70
2018-03-27T16:39:03.870Z,5.45
2018-03-27T16:41:32.929Z,5.40
2018-03-27T16:44:01.994Z,5.68
2018-03-27T16:46:31.064Z,4.97
2018-03-27T16:49:00.131Z,5.93
2018-03-27T16:51:29.983Z,6.50
2018-03-27T16:53:59.054Z,5.10
2018-03-27T16:56:28.344Z,5.22
2018-03-27T16:58:58.067Z,4.03
2018-03-27T17:01:27.181Z,4.50
2018-03-27T17:03:56.275Z,5.32
2018-03-27T17:06:25.367Z,5.35
2018-03-27T17:08:54.430Z,5.47
2018-03-27T17:11:23.551Z,4.97
2018-03-27T17:13:52.605Z,4.30
2018-03-27T17:16:21.662Z,4.40
2018-03-27T17:18:50.722Z,5.00
2018-03-27T17:21:19.818Z,4.03
2018-03-27T17:23:49.665Z,4.80
2018-03-27T17:26:18.729Z,5.30
2018-03-27T17:28:48.411Z,4.60
2018-03-27T17:31:17.470Z,5.60
2018-03-27T17:33:46.608Z,5.05
2018-03-27T17:36:15.697Z,6.25
2018-03-27T17:38:45.534Z,5.75
2018-03-27T17:41:14.671Z,5.10
2018-03-27T17:43:43.760Z,5.82
2018-03-27T17:46:12.829Z,6.15
2018-03-27T17:48:41.897Z,5.93
2018-03-27T17:51:11.742Z,4.45
2018-03-27T17:53:40.829Z,4.70
2018-03-27T17:56:09.882Z,5.18
2018-03-27T17:58:39.031Z,5.00
2018-03-27T18:01:08.234Z,5.32
2018-03-27T18:03:38.093Z,5.35
2018-03-27T18:06:07.190Z,5.62
2018-03-27T18:08:36.282Z,6.20
2018-03-27T18:11:06.114Z,6.22
2018-03-27T18:13:35.941Z,6.00
2018-03-27T18:16:05.826Z,6.22
2018-03-27T18:18:34.887Z,6.70
2018-03-27T18:21:04.722Z,12.37
2018-03-27T18:23:33.946Z,14.45
2018-03-27T18:26:03.079Z,8.20
2018-03-27T18:28:32.154Z,6.47
2018-03-27T18:31:01.330Z,5.40
2018-03-27T18:33:30.407Z,13.55
2018-03-27T18:35:59.543Z,9.10
2018-03-27T18:38:28.615Z,6.12
2018-03-27T18:40:57.688Z,7.25
2018-03-27T18:43:27.559Z,6.87
2018-03-27T18:45:56.673Z,5.10
2018-03-27T18:48:25.745Z,6.10
2018-03-27T18:50:55.579Z,5.40
2018-03-27T18:53:25.438Z,6.28
2018-03-27T18:55:54.507Z,7.37
2018-03-27T18:58:24.468Z,10.25
2018-03-27T19:00:53.574Z,9.68
2018-03-27T19:03:22.646Z,8.88
2018-03-27T19:05:51.747Z,7.57
2018-03-27T19:08:20.820Z,7.85
2018-03-27T19:10:49.931Z,8.02
2018-03-27T19:13:19.019Z,8.52
2018-03-27T19:15:48.263Z,7.32
2018-03-27T19:18:17.336Z,7.32
2018-03-27T19:20:46.487Z,6.03
2018-03-27T19:23:15.564Z,6.93
2018-03-27T19:25:44.693Z,7.05
2018-03-27T19:28:25.621Z,5.62
2018-03-27T19:30:54.962Z,5.35
2018-03-27T19:33:24.080Z,5.35
2018-03-27T19:35:53.925Z,4.97
2018-03-27T19:38:23.022Z,6.93
2018-03-27T19:40:52.148Z,5.62
2018-03-27T19:43:21.957Z,5.85
2018-03-27T19:45:51.865Z,6.12
2018-03-27T19:48:21.899Z,5.90
2018-03-27T19:50:51.192Z,5.35
2018-03-27T19:53:20.293Z,5.05
2018-03-27T19:55:49.376Z,7.20
2018-03-27T19:58:18.520Z,5.97
2018-03-27T20:00:47.656Z,4.85
2018-03-27T20:03:16.871Z,6.10
2018-03-27T20:05:46.831Z,6.18
2018-03-27T20:08:15.916Z,6.28
2018-03-27T20:10:45.786Z,6.30
2018-03-27T20:13:14.868Z,6.10
2018-03-27T20:15:43.948Z,5.10
2018-03-27T20:18:13.032Z,4.72
2018-03-27T20:20:42.109Z,4.72
2018-03-27T20:23:11.183Z,5.30
2018-03-27T20:25:41.372Z,5.82
2018-03-27T20:28:10.481Z,5.37
2018-03-27T20:30:39.615Z,5.80
2018-03-27T20:33:08.684Z,6.00
2018-03-27T20:35:37.751Z,5.50
2018-03-27T20:38:06.848Z,5.43
2018-03-27T20:40:35.924Z,5.10
2018-03-27T20:43:04.995Z,5.47
2018-03-27T20:45:34.065Z,6.12
2018-03-27T20:48:03.133Z,5.80
2018-03-27T20:50:32.959Z,5.07
2018-03-27T20:53:02.830Z,4.93
2018-03-27T20:55:31.890Z,5.40
2018-03-27T20:58:01.724Z,5.10
2018-03-27T21:00:30.815Z,4.75
2018-03-27T21:02:59.917Z,5.72
2018-03-27T21:05:29.004Z,5.22
2018-03-27T21:07:58.124Z,5.70
2018-03-27T21:10:27.190Z,5.07
2018-03-27T21:12:56.314Z,4.57
2018-03-27T21:15:25.461Z,5.62
2018-03-27T21:17:54.547Z,5.10
2018-03-27T21:20:24.364Z,5.22
2018-03-27T21:22:53.426Z,4.87
2018-03-27T21:25:22.549Z,5.50
2018-03-27T21:27:52.390Z,5.85
2018-03-27T21:30:21.485Z,4.55
2018-03-27T21:32:51.398Z,4.78
2018-03-27T21:35:20.498Z,5.28
2018-03-27T21:37:49.569Z,5.55
2018-03-27T21:40:18.631Z,4.78
2018-03-27T21:42:47.750Z,5.07
2018-03-27T21:45:16.813Z,5.40
2018-03-27T21:47:45.922Z,5.25
2018-03-27T21:50:15.006Z,4.80
2018-03-27T21:52:44.066Z,5.62
2018-03-27T21:55:13.193Z,6.07
2018-03-27T21:57:42.261Z,5.20
2018-03-27T22:00:11.374Z,5.35
2018-03-27T22:02:40.675Z,4.68
2018-03-27T22:05:09.857Z,5.05
2018-03-27T22:07:38.922Z,5.15
2018-03-27T22:10:09.058Z,5.18
2018-03-27T22:12:38.136Z,4.57
2018-03-27T22:15:07.235Z,6.60
2018-03-27T22:17:36.366Z,5.20
2018-03-27T22:20:05.442Z,5.70
2018-03-27T22:22:35.308Z,6.18
2018-03-27T22:25:04.378Z,5.15
2018-03-27T22:27:34.210Z,6.45
2018-03-27T22:30:04.039Z,5.65
2018-03-27T22:32:33.862Z,5.50
2018-03-27T22:35:03.726Z,4.80
2018-03-27T22:37:32.919Z,5.40
2018-03-27T22:40:01.989Z,5.75
2018-03-27T22:42:31.071Z,5.80
2018-03-27T22:45:00.146Z,5.78
2018-03-27T22:47:29.211Z,5.75
2018-03-27T22:49:58.315Z,6.10
2018-03-27T22:52:27.374Z,7.00
2018-03-27T22:54:56.442Z,5.87
2018-03-27T22:57:25.541Z,5.93
2018-03-27T22:59:54.660Z,5.75
2018-03-27T23:02:23.730Z,5.57
2018-03-27T23:04:53.050Z,5.93
2018-03-27T23:07:22.292Z,6.05
2018-03-27T23:09:51.358Z,7.22
2018-03-27T23:12:20.666Z,5.95
2018-03-27T23:14:49.754Z,7.28
2018-03-27T23:17:18.883Z,7.12
2018-03-27T23:19:48.714Z,7.05
2018-03-27T23:22:31.480Z,6.70
2018-03-27T23:25:00.546Z,6.62
2018-03-27T23:27:29.658Z,7.45
2018-03-27T23:29:59.530Z,7.35
2018-03-27T23:32:28.638Z,7.30
2018-03-27T23:34:57.768Z,7.12
2018-03-27T23:37:26.830Z,8.27
2018-03-27T23:39:55.897Z,7.60
2018-03-27T23:42:25.026Z,8.02
2018-03-27T23:44:54.868Z,8.10
2018-03-27T23:47:24.734Z,8.13
2018-03-27T23:49:53.803Z,8.43
2018-03-27T23:52:23.642Z,8.65
2018-03-27T23:54:52.706Z,8.38
2018-03-27T23:57:21.783Z,8.43
2018-03-27T23:59:50.890Z,9.35
